sensor_id;sensor_type;location;lat;lon;timestamp;P1;durP1;ratioP1;P2;durP2;ratioP2
72547;SDS011;60570;50.848;6.776;2022-08-05T00:00:55;4.07;;;1.27;;
72547;SDS011;60570;50.848;6.776;2022-08-05T00:01:56;5.82;;;1.20;;
72547;SDS011;60570;50.848;6.776;2022-08-05T00:02:56;3.30;;;1.20;;
72547;SDS011;60570;50.848;6.776;2022-08-05T00:03:57;4.07;;;1.08;;
72547;SDS011;60570;50.848;6.776;2022-08-05T00:04:57;3.80;;;1.10;;
72547;SDS011;60570;50.848;6.776;2022-08-05T00:05:57;3.50;;;1.17;;
72547;SDS011;60570;50.848;6.776;2022-08-05T00:06:58;3.42;;;1.08;;
72547;SDS011;60570;50.848;6.776;2022-08-05T00:07:58;3.80;;;1.17;;
72547;SDS011;60570;50.848;6.776;2022-08-05T00:08:59;2.47;;;0.80;;
72547;SDS011;60570;50.848;6.776;2022-08-05T00:10:00;3.78;;;1.02;;
72547;SDS011;60570;50.848;6.776;2022-08-05T00:11:01;3.85;;;1.08;;
72547;SDS011;60570;50.848;6.776;2022-08-05T00:12:03;3.63;;;1.05;;
72547;SDS011;60570;50.848;6.776;2022-08-05T00:13:04;4.40;;;1.00;;
72547;SDS011;60570;50.848;6.776;2022-08-05T00:14:04;4.70;;;1.13;;
72547;SDS011;60570;50.848;6.776;2022-08-05T00:15:05;3.85;;;1.05;;
72547;SDS011;60570;50.848;6.776;2022-08-05T00:16:07;2.17;;;0.80;;
72547;SDS011;60570;50.848;6.776;2022-08-05T00:17:09;3.72;;;1.17;;
72547;SDS011;60570;50.848;6.776;2022-08-05T00:18:09;5.75;;;1.45;;
72547;SDS011;60570;50.848;6.776;2022-08-05T00:19:10;3.25;;;0.93;;
72547;SDS011;60570;50.848;6.776;2022-08-05T00:20:10;6.68;;;1.20;;
72547;SDS011;60570;50.848;6.776;2022-08-05T00:21:11;4.00;;;1.00;;
72547;SDS011;60570;50.848;6.776;2022-08-05T00:22:12;3.17;;;0.90;;
72547;SDS011;60570;50.848;6.776;2022-08-05T00:23:13;3.30;;;1.10;;
72547;SDS011;60570;50.848;6.776;2022-08-05T00:24:13;4.95;;;1.30;;
72547;SDS011;60570;50.848;6.776;2022-08-05T00:25:13;3.70;;;0.93;;
72547;SDS011;60570;50.848;6.776;2022-08-05T00:26:14;3.33;;;0.82;;
72547;SDS011;60570;50.848;6.776;2022-08-05T00:27:15;3.10;;;1.00;;
72547;SDS011;60570;50.848;6.776;2022-08-05T00:28:15;2.40;;;0.93;;
72547;SDS011;60570;50.848;6.776;2022-08-05T00:29:16;3.35;;;0.93;;
72547;SDS011;60570;50.848;6.776;2022-08-05T00:30:16;3.17;;;1.05;;
72547;SDS011;60570;50.848;6.776;2022-08-05T00:31:17;3.92;;;1.00;;
72547;SDS011;60570;50.848;6.776;2022-08-05T00:32:18;6.30;;;1.40;;
72547;SDS011;60570;50.848;6.776;2022-08-05T00:33:18;3.45;;;1.00;;
72547;SDS011;60570;50.848;6.776;2022-08-05T00:34:18;3.60;;;1.00;;
72547;SDS011;60570;50.848;6.776;2022-08-05T00:35:19;3.65;;;1.27;;
72547;SDS011;60570;50.848;6.776;2022-08-05T00:36:19;3.90;;;1.05;;
72547;SDS011;60570;50.848;6.776;2022-08-05T00:37:21;5.40;;;1.05;;
72547;SDS011;60570;50.848;6.776;2022-08-05T00:38:22;3.15;;;0.90;;
72547;SDS011;60570;50.848;6.776;2022-08-05T00:39:22;2.97;;;1.00;;
72547;SDS011;60570;50.848;6.776;2022-08-05T00:40:23;3.38;;;0.85;;
72547;SDS011;60570;50.848;6.776;2022-08-05T00:41:26;3.35;;;0.95;;
72547;SDS011;60570;50.848;6.776;2022-08-05T00:42:31;3.60;;;0.90;;
72547;SDS011;60570;50.848;6.776;2022-08-05T00:43:33;3.63;;;1.10;;
72547;SDS011;60570;50.848;6.776;2022-08-05T00:44:34;3.30;;;1.10;;
72547;SDS011;60570;50.848;6.776;2022-08-05T00:45:34;3.65;;;1.30;;
72547;SDS011;60570;50.848;6.776;2022-08-05T00:46:35;3.17;;;0.93;;
72547;SDS011;60570;50.848;6.776;2022-08-05T00:47:35;6.15;;;1.27;;
72547;SDS011;60570;50.848;6.776;2022-08-05T00:48:36;3.17;;;1.00;;
72547;SDS011;60570;50.848;6.776;2022-08-05T00:49:36;3.92;;;1.20;;
72547;SDS011;60570;50.848;6.776;2022-08-05T00:50:37;6.05;;;1.15;;
72547;SDS011;60570;50.848;6.776;2022-08-05T00:51:39;2.72;;;1.02;;
72547;SDS011;60570;50.848;6.776;2022-08-05T00:52:40;3.20;;;1.00;;
72547;SDS011;60570;50.848;6.776;2022-08-05T00:53:40;3.47;;;1.00;;
72547;SDS011;60570;50.848;6.776;2022-08-05T00:54:40;2.95;;;0.95;;
72547;SDS011;60570;50.848;6.776;2022-08-05T00:55:41;2.70;;;0.80;;
72547;SDS011;60570;50.848;6.776;2022-08-05T00:56:42;3.63;;;1.08;;
72547;SDS011;60570;50.848;6.776;2022-08-05T00:57:43;5.00;;;1.10;;
72547;SDS011;60570;50.848;6.776;2022-08-05T00:58:43;3.97;;;1.08;;
72547;SDS011;60570;50.848;6.776;2022-08-05T00:59:44;4.40;;;1.17;;
72547;SDS011;60570;50.848;6.776;2022-08-05T01:00:45;5.38;;;1.33;;
72547;SDS011;60570;50.848;6.776;2022-08-05T01:01:46;3.55;;;1.10;;
72547;SDS011;60570;50.848;6.776;2022-08-05T01:02:47;3.40;;;1.10;;
72547;SDS011;60570;50.848;6.776;2022-08-05T01:03:47;3.95;;;1.20;;
72547;SDS011;60570;50.848;6.776;2022-08-05T01:04:47;5.05;;;1.30;;
72547;SDS011;60570;50.848;6.776;2022-08-05T01:05:48;3.58;;;1.20;;
72547;SDS011;60570;50.848;6.776;2022-08-05T01:06:49;2.38;;;1.00;;
72547;SDS011;60570;50.848;6.776;2022-08-05T01:07:50;2.83;;;0.93;;
72547;SDS011;60570;50.848;6.776;2022-08-05T01:08:51;4.18;;;0.98;;
72547;SDS011;60570;50.848;6.776;2022-08-05T01:09:52;3.35;;;0.90;;
72547;SDS011;60570;50.848;6.776;2022-08-05T01:10:53;3.55;;;1.23;;
72547;SDS011;60570;50.848;6.776;2022-08-05T01:11:58;2.78;;;0.95;;
72547;SDS011;60570;50.848;6.776;2022-08-05T01:13:03;4.10;;;1.30;;
72547;SDS011;60570;50.848;6.776;2022-08-05T01:15:33;3.55;;;0.90;;
72547;SDS011;60570;50.848;6.776;2022-08-05T01:18:13;4.70;;;1.02;;
72547;SDS011;60570;50.848;6.776;2022-08-05T01:23:17;3.72;;;1.00;;
72547;SDS011;60570;50.848;6.776;2022-08-05T01:27:02;3.72;;;1.20;;
72547;SDS011;60570;50.848;6.776;2022-08-05T01:28:21;3.28;;;0.88;;
72547;SDS011;60570;50.848;6.776;2022-08-05T01:29:37;3.65;;;1.00;;
72547;SDS011;60570;50.848;6.776;2022-08-05T01:31:51;3.60;;;1.20;;
72547;SDS011;60570;50.848;6.776;2022-08-05T01:32:53;3.40;;;1.25;;
72547;SDS011;60570;50.848;6.776;2022-08-05T01:35:23;4.20;;;1.00;;
72547;SDS011;60570;50.848;6.776;2022-08-05T01:36:28;4.57;;;1.52;;
72547;SDS011;60570;50.848;6.776;2022-08-05T01:37:51;4.65;;;1.20;;
72547;SDS011;60570;50.848;6.776;2022-08-05T01:38:54;5.53;;;1.20;;
72547;SDS011;60570;50.848;6.776;2022-08-05T01:39:56;2.63;;;0.80;;
72547;SDS011;60570;50.848;6.776;2022-08-05T01:40:57;3.42;;;1.08;;
72547;SDS011;60570;50.848;6.776;2022-08-05T01:41:59;4.97;;;1.00;;
72547;SDS011;60570;50.848;6.776;2022-08-05T01:43:02;4.32;;;1.10;;
72547;SDS011;60570;50.848;6.776;2022-08-05T01:44:05;5.00;;;1.20;;
72547;SDS011;60570;50.848;6.776;2022-08-05T01:45:07;4.78;;;1.40;;
72547;SDS011;60570;50.848;6.776;2022-08-05T01:46:08;6.75;;;1.15;;
72547;SDS011;60570;50.848;6.776;2022-08-05T01:47:09;4.63;;;1.20;;
72547;SDS011;60570;50.848;6.776;2022-08-05T01:48:11;4.20;;;1.10;;
72547;SDS011;60570;50.848;6.776;2022-08-05T01:49:18;4.15;;;1.27;;
72547;SDS011;60570;50.848;6.776;2022-08-05T01:50:39;3.78;;;1.20;;
72547;SDS011;60570;50.848;6.776;2022-08-05T01:51:40;3.45;;;1.20;;
72547;SDS011;60570;50.848;6.776;2022-08-05T01:52:42;3.85;;;1.17;;
72547;SDS011;60570;50.848;6.776;2022-08-05T01:53:47;4.53;;;1.27;;
72547;SDS011;60570;50.848;6.776;2022-08-05T01:54:51;3.35;;;0.93;;
72547;SDS011;60570;50.848;6.776;2022-08-05T01:55:56;3.50;;;1.00;;
72547;SDS011;60570;50.848;6.776;2022-08-05T01:57:00;3.58;;;1.23;;
72547;SDS011;60570;50.848;6.776;2022-08-05T01:58:03;4.97;;;1.13;;
72547;SDS011;60570;50.848;6.776;2022-08-05T01:59:07;3.22;;;0.98;;
72547;SDS011;60570;50.848;6.776;2022-08-05T02:00:11;3.30;;;1.10;;
72547;SDS011;60570;50.848;6.776;2022-08-05T02:01:12;2.58;;;0.98;;
72547;SDS011;60570;50.848;6.776;2022-08-05T02:02:13;3.60;;;1.13;;
72547;SDS011;60570;50.848;6.776;2022-08-05T02:04:35;3.80;;;1.10;;
72547;SDS011;60570;50.848;6.776;2022-08-05T02:05:39;3.47;;;1.05;;
72547;SDS011;60570;50.848;6.776;2022-08-05T02:06:42;6.18;;;1.17;;
72547;SDS011;60570;50.848;6.776;2022-08-05T02:07:43;3.72;;;1.10;;
72547;SDS011;60570;50.848;6.776;2022-08-05T02:08:43;2.40;;;0.90;;
72547;SDS011;60570;50.848;6.776;2022-08-05T02:09:44;4.05;;;1.17;;
72547;SDS011;60570;50.848;6.776;2022-08-05T02:10:49;6.80;;;1.20;;
72547;SDS011;60570;50.848;6.776;2022-08-05T02:12:04;3.42;;;1.10;;
72547;SDS011;60570;50.848;6.776;2022-08-05T02:13:12;3.83;;;1.20;;
72547;SDS011;60570;50.848;6.776;2022-08-05T02:14:16;3.30;;;1.25;;
72547;SDS011;60570;50.848;6.776;2022-08-05T02:15:32;3.78;;;0.90;;
72547;SDS011;60570;50.848;6.776;2022-08-05T02:16:37;3.13;;;1.00;;
72547;SDS011;60570;50.848;6.776;2022-08-05T02:17:50;3.72;;;1.17;;
72547;SDS011;60570;50.848;6.776;2022-08-05T02:18:57;3.58;;;0.95;;
72547;SDS011;60570;50.848;6.776;2022-08-05T02:20:03;5.38;;;1.30;;
72547;SDS011;60570;50.848;6.776;2022-08-05T02:21:17;4.32;;;1.20;;
72547;SDS011;60570;50.848;6.776;2022-08-05T02:22:28;3.40;;;1.10;;
72547;SDS011;60570;50.848;6.776;2022-08-05T02:24:36;4.47;;;1.20;;
72547;SDS011;60570;50.848;6.776;2022-08-05T02:25:38;6.88;;;1.67;;
72547;SDS011;60570;50.848;6.776;2022-08-05T02:26:45;4.43;;;1.20;;
72547;SDS011;60570;50.848;6.776;2022-08-05T02:27:48;4.60;;;1.40;;
72547;SDS011;60570;50.848;6.776;2022-08-05T02:28:50;5.55;;;1.05;;
72547;SDS011;60570;50.848;6.776;2022-08-05T02:29:53;7.78;;;1.10;;
72547;SDS011;60570;50.848;6.776;2022-08-05T02:31:00;3.95;;;1.23;;
72547;SDS011;60570;50.848;6.776;2022-08-05T02:32:05;3.88;;;1.10;;
72547;SDS011;60570;50.848;6.776;2022-08-05T02:33:08;5.13;;;1.10;;
72547;SDS011;60570;50.848;6.776;2022-08-05T02:34:10;5.90;;;1.35;;
72547;SDS011;60570;50.848;6.776;2022-08-05T02:35:13;5.55;;;1.33;;
72547;SDS011;60570;50.848;6.776;2022-08-05T02:36:16;6.60;;;1.33;;
72547;SDS011;60570;50.848;6.776;2022-08-05T02:37:19;5.75;;;1.30;;
72547;SDS011;60570;50.848;6.776;2022-08-05T02:38:22;4.15;;;1.48;;
72547;SDS011;60570;50.848;6.776;2022-08-05T02:39:23;4.53;;;1.13;;
72547;SDS011;60570;50.848;6.776;2022-08-05T02:40:25;4.43;;;1.40;;
72547;SDS011;60570;50.848;6.776;2022-08-05T02:41:26;4.05;;;1.15;;
72547;SDS011;60570;50.848;6.776;2022-08-05T02:42:27;6.13;;;1.42;;
72547;SDS011;60570;50.848;6.776;2022-08-05T02:43:29;3.90;;;1.17;;
72547;SDS011;60570;50.848;6.776;2022-08-05T02:44:32;4.60;;;0.98;;
72547;SDS011;60570;50.848;6.776;2022-08-05T02:45:35;4.53;;;1.35;;
72547;SDS011;60570;50.848;6.776;2022-08-05T02:46:37;5.05;;;1.48;;
72547;SDS011;60570;50.848;6.776;2022-08-05T02:47:40;5.07;;;1.20;;
72547;SDS011;60570;50.848;6.776;2022-08-05T02:48:43;3.58;;;1.10;;
72547;SDS011;60570;50.848;6.776;2022-08-05T02:49:44;4.63;;;1.40;;
72547;SDS011;60570;50.848;6.776;2022-08-05T02:50:45;4.28;;;1.40;;
72547;SDS011;60570;50.848;6.776;2022-08-05T02:51:47;6.55;;;1.30;;
72547;SDS011;60570;50.848;6.776;2022-08-05T02:52:48;6.05;;;1.40;;
72547;SDS011;60570;50.848;6.776;2022-08-05T02:53:50;6.57;;;1.70;;
72547;SDS011;60570;50.848;6.776;2022-08-05T02:54:51;6.57;;;1.23;;
72547;SDS011;60570;50.848;6.776;2022-08-05T02:55:53;6.28;;;1.20;;
72547;SDS011;60570;50.848;6.776;2022-08-05T02:56:54;4.80;;;1.30;;
72547;SDS011;60570;50.848;6.776;2022-08-05T02:57:56;6.10;;;1.20;;
72547;SDS011;60570;50.848;6.776;2022-08-05T02:58:58;5.40;;;1.35;;
72547;SDS011;60570;50.848;6.776;2022-08-05T03:00:00;5.15;;;1.35;;
72547;SDS011;60570;50.848;6.776;2022-08-05T03:01:00;5.32;;;1.42;;
72547;SDS011;60570;50.848;6.776;2022-08-05T03:02:01;4.13;;;0.90;;
72547;SDS011;60570;50.848;6.776;2022-08-05T03:03:03;3.38;;;1.00;;
72547;SDS011;60570;50.848;6.776;2022-08-05T03:04:06;5.97;;;1.50;;
72547;SDS011;60570;50.848;6.776;2022-08-05T03:05:10;5.40;;;1.30;;
72547;SDS011;60570;50.848;6.776;2022-08-05T03:06:11;4.82;;;1.25;;
72547;SDS011;60570;50.848;6.776;2022-08-05T03:07:12;3.72;;;1.20;;
72547;SDS011;60570;50.848;6.776;2022-08-05T03:08:13;4.13;;;1.17;;
72547;SDS011;60570;50.848;6.776;2022-08-05T03:09:14;4.40;;;1.17;;
72547;SDS011;60570;50.848;6.776;2022-08-05T03:10:15;5.70;;;1.30;;
72547;SDS011;60570;50.848;6.776;2022-08-05T03:11:17;3.08;;;1.00;;
72547;SDS011;60570;50.848;6.776;2022-08-05T03:12:34;4.70;;;1.00;;
72547;SDS011;60570;50.848;6.776;2022-08-05T03:13:35;3.53;;;1.02;;
72547;SDS011;60570;50.848;6.776;2022-08-05T03:14:38;3.70;;;1.15;;
72547;SDS011;60570;50.848;6.776;2022-08-05T03:15:40;3.60;;;1.35;;
72547;SDS011;60570;50.848;6.776;2022-08-05T03:16:44;4.75;;;1.27;;
72547;SDS011;60570;50.848;6.776;2022-08-05T03:17:44;4.45;;;1.20;;
72547;SDS011;60570;50.848;6.776;2022-08-05T03:18:45;2.85;;;0.90;;
72547;SDS011;60570;50.848;6.776;2022-08-05T03:19:46;4.97;;;1.23;;
72547;SDS011;60570;50.848;6.776;2022-08-05T03:20:46;4.82;;;1.23;;
72547;SDS011;60570;50.848;6.776;2022-08-05T03:21:46;4.93;;;1.50;;
72547;SDS011;60570;50.848;6.776;2022-08-05T03:22:47;3.97;;;0.93;;
72547;SDS011;60570;50.848;6.776;2022-08-05T03:23:47;5.75;;;1.05;;
72547;SDS011;60570;50.848;6.776;2022-08-05T03:24:48;4.07;;;1.25;;
72547;SDS011;60570;50.848;6.776;2022-08-05T03:25:50;3.78;;;1.25;;
72547;SDS011;60570;50.848;6.776;2022-08-05T03:26:51;5.32;;;1.05;;
72547;SDS011;60570;50.848;6.776;2022-08-05T03:27:51;4.65;;;1.40;;
72547;SDS011;60570;50.848;6.776;2022-08-05T03:28:53;3.70;;;1.00;;
72547;SDS011;60570;50.848;6.776;2022-08-05T03:29:54;4.70;;;1.17;;
72547;SDS011;60570;50.848;6.776;2022-08-05T03:30:55;4.15;;;1.08;;
72547;SDS011;60570;50.848;6.776;2022-08-05T03:31:57;4.18;;;1.00;;
72547;SDS011;60570;50.848;6.776;2022-08-05T03:32:58;3.45;;;0.90;;
72547;SDS011;60570;50.848;6.776;2022-08-05T03:33:59;3.67;;;1.08;;
72547;SDS011;60570;50.848;6.776;2022-08-05T03:35:00;4.25;;;1.13;;
72547;SDS011;60570;50.848;6.776;2022-08-05T03:36:01;3.75;;;1.30;;
72547;SDS011;60570;50.848;6.776;2022-08-05T03:37:02;3.08;;;1.13;;
72547;SDS011;60570;50.848;6.776;2022-08-05T03:38:04;4.43;;;1.30;;
72547;SDS011;60570;50.848;6.776;2022-08-05T03:39:05;4.20;;;1.27;;
72547;SDS011;60570;50.848;6.776;2022-08-05T03:40:07;2.90;;;1.00;;
72547;SDS011;60570;50.848;6.776;2022-08-05T03:41:09;5.63;;;1.35;;
72547;SDS011;60570;50.848;6.776;2022-08-05T03:42:09;4.55;;;1.23;;
72547;SDS011;60570;50.848;6.776;2022-08-05T03:43:10;3.33;;;1.05;;
72547;SDS011;60570;50.848;6.776;2022-08-05T03:44:11;3.20;;;0.93;;
72547;SDS011;60570;50.848;6.776;2022-08-05T03:45:11;4.78;;;1.13;;
72547;SDS011;60570;50.848;6.776;2022-08-05T03:46:11;4.57;;;1.33;;
72547;SDS011;60570;50.848;6.776;2022-08-05T03:47:12;6.57;;;1.27;;
72547;SDS011;60570;50.848;6.776;2022-08-05T03:48:12;4.63;;;1.25;;
72547;SDS011;60570;50.848;6.776;2022-08-05T03:49:13;5.22;;;1.20;;
72547;SDS011;60570;50.848;6.776;2022-08-05T03:50:13;3.72;;;1.15;;
72547;SDS011;60570;50.848;6.776;2022-08-05T03:51:23;3.28;;;1.05;;
72547;SDS011;60570;50.848;6.776;2022-08-05T03:52:47;4.60;;;1.17;;
72547;SDS011;60570;50.848;6.776;2022-08-05T03:54:01;5.32;;;1.38;;
72547;SDS011;60570;50.848;6.776;2022-08-05T03:55:25;3.60;;;1.20;;
72547;SDS011;60570;50.848;6.776;2022-08-05T03:56:37;4.53;;;1.40;;
72547;SDS011;60570;50.848;6.776;2022-08-05T03:57:41;3.75;;;0.95;;
72547;SDS011;60570;50.848;6.776;2022-08-05T03:58:45;3.55;;;1.17;;
72547;SDS011;60570;50.848;6.776;2022-08-05T03:59:52;3.95;;;1.20;;
72547;SDS011;60570;50.848;6.776;2022-08-05T04:00:59;3.58;;;0.90;;
72547;SDS011;60570;50.848;6.776;2022-08-05T04:02:02;3.33;;;0.98;;
72547;SDS011;60570;50.848;6.776;2022-08-05T04:03:03;3.35;;;1.30;;
72547;SDS011;60570;50.848;6.776;2022-08-05T04:04:05;4.05;;;1.30;;
72547;SDS011;60570;50.848;6.776;2022-08-05T04:05:08;3.85;;;1.10;;
72547;SDS011;60570;50.848;6.776;2022-08-05T04:06:09;4.95;;;1.35;;
72547;SDS011;60570;50.848;6.776;2022-08-05T04:07:10;3.80;;;1.20;;
72547;SDS011;60570;50.848;6.776;2022-08-05T04:08:10;3.88;;;1.10;;
72547;SDS011;60570;50.848;6.776;2022-08-05T04:09:13;6.50;;;1.20;;
72547;SDS011;60570;50.848;6.776;2022-08-05T04:10:16;4.80;;;1.20;;
72547;SDS011;60570;50.848;6.776;2022-08-05T04:11:16;3.70;;;0.90;;
72547;SDS011;60570;50.848;6.776;2022-08-05T04:12:17;5.43;;;1.33;;
72547;SDS011;60570;50.848;6.776;2022-08-05T04:13:18;4.63;;;1.20;;
72547;SDS011;60570;50.848;6.776;2022-08-05T04:14:20;3.67;;;0.90;;
72547;SDS011;60570;50.848;6.776;2022-08-05T04:15:21;4.25;;;1.30;;
72547;SDS011;60570;50.848;6.776;2022-08-05T04:16:21;4.45;;;1.52;;
72547;SDS011;60570;50.848;6.776;2022-08-05T04:17:22;6.03;;;1.20;;
72547;SDS011;60570;50.848;6.776;2022-08-05T04:18:23;3.35;;;0.95;;
72547;SDS011;60570;50.848;6.776;2022-08-05T04:19:24;3.75;;;1.08;;
72547;SDS011;60570;50.848;6.776;2022-08-05T04:20:24;3.65;;;1.10;;
72547;SDS011;60570;50.848;6.776;2022-08-05T04:21:25;3.63;;;1.15;;
72547;SDS011;60570;50.848;6.776;2022-08-05T04:22:25;3.95;;;1.15;;
72547;SDS011;60570;50.848;6.776;2022-08-05T04:23:27;4.35;;;1.27;;
72547;SDS011;60570;50.848;6.776;2022-08-05T04:24:28;4.97;;;1.05;;
72547;SDS011;60570;50.848;6.776;2022-08-05T04:25:28;4.25;;;1.10;;
72547;SDS011;60570;50.848;6.776;2022-08-05T04:26:29;4.40;;;1.13;;
72547;SDS011;60570;50.848;6.776;2022-08-05T04:27:30;5.00;;;1.23;;
72547;SDS011;60570;50.848;6.776;2022-08-05T04:28:30;5.85;;;1.27;;
72547;SDS011;60570;50.848;6.776;2022-08-05T04:29:31;3.47;;;1.27;;
72547;SDS011;60570;50.848;6.776;2022-08-05T04:30:31;4.20;;;0.90;;
72547;SDS011;60570;50.848;6.776;2022-08-05T04:31:32;3.55;;;1.40;;
72547;SDS011;60570;50.848;6.776;2022-08-05T04:32:32;4.65;;;1.10;;
72547;SDS011;60570;50.848;6.776;2022-08-05T04:33:32;4.15;;;1.33;;
72547;SDS011;60570;50.848;6.776;2022-08-05T04:34:33;6.05;;;1.30;;
72547;SDS011;60570;50.848;6.776;2022-08-05T04:35:34;4.32;;;1.30;;
72547;SDS011;60570;50.848;6.776;2022-08-05T04:36:34;4.57;;;1.38;;
72547;SDS011;60570;50.848;6.776;2022-08-05T04:37:35;4.07;;;1.02;;
72547;SDS011;60570;50.848;6.776;2022-08-05T04:38:35;4.72;;;1.10;;
72547;SDS011;60570;50.848;6.776;2022-08-05T04:39:36;4.68;;;1.38;;
72547;SDS011;60570;50.848;6.776;2022-08-05T04:40:37;4.40;;;1.17;;
72547;SDS011;60570;50.848;6.776;2022-08-05T04:41:38;4.45;;;1.40;;
72547;SDS011;60570;50.848;6.776;2022-08-05T04:42:39;3.72;;;1.23;;
72547;SDS011;60570;50.848;6.776;2022-08-05T04:43:39;4.65;;;1.20;;
72547;SDS011;60570;50.848;6.776;2022-08-05T04:44:40;5.60;;;1.42;;
72547;SDS011;60570;50.848;6.776;2022-08-05T04:45:40;3.15;;;1.10;;
72547;SDS011;60570;50.848;6.776;2022-08-05T04:46:41;2.83;;;1.20;;
72547;SDS011;60570;50.848;6.776;2022-08-05T04:47:41;4.15;;;1.20;;
72547;SDS011;60570;50.848;6.776;2022-08-05T04:48:41;4.75;;;1.15;;
72547;SDS011;60570;50.848;6.776;2022-08-05T04:49:42;3.65;;;1.10;;
72547;SDS011;60570;50.848;6.776;2022-08-05T04:50:43;3.78;;;1.38;;
72547;SDS011;60570;50.848;6.776;2022-08-05T04:51:45;2.80;;;1.10;;
72547;SDS011;60570;50.848;6.776;2022-08-05T04:52:45;3.75;;;1.20;;
72547;SDS011;60570;50.848;6.776;2022-08-05T04:53:45;3.75;;;1.20;;
72547;SDS011;60570;50.848;6.776;2022-08-05T04:54:46;4.00;;;1.38;;
72547;SDS011;60570;50.848;6.776;2022-08-05T04:55:46;3.85;;;1.02;;
72547;SDS011;60570;50.848;6.776;2022-08-05T04:56:47;5.53;;;1.23;;
72547;SDS011;60570;50.848;6.776;2022-08-05T04:57:47;3.75;;;1.30;;
72547;SDS011;60570;50.848;6.776;2022-08-05T04:58:48;3.08;;;0.98;;
72547;SDS011;60570;50.848;6.776;2022-08-05T04:59:48;5.68;;;1.25;;
72547;SDS011;60570;50.848;6.776;2022-08-05T05:00:49;4.43;;;1.50;;
72547;SDS011;60570;50.848;6.776;2022-08-05T05:01:51;3.40;;;1.20;;
72547;SDS011;60570;50.848;6.776;2022-08-05T05:02:51;2.85;;;1.10;;
72547;SDS011;60570;50.848;6.776;2022-08-05T05:03:52;3.58;;;1.17;;
72547;SDS011;60570;50.848;6.776;2022-08-05T05:04:52;4.90;;;1.35;;
72547;SDS011;60570;50.848;6.776;2022-08-05T05:05:52;4.00;;;1.33;;
72547;SDS011;60570;50.848;6.776;2022-08-05T05:06:53;5.63;;;1.70;;
72547;SDS011;60570;50.848;6.776;2022-08-05T05:08:14;5.68;;;1.70;;
72547;SDS011;60570;50.848;6.776;2022-08-05T05:09:14;4.43;;;1.25;;
72547;SDS011;60570;50.848;6.776;2022-08-05T05:10:14;2.88;;;1.20;;
72547;SDS011;60570;50.848;6.776;2022-08-05T05:11:15;3.92;;;1.20;;
72547;SDS011;60570;50.848;6.776;2022-08-05T05:12:15;4.72;;;1.30;;
72547;SDS011;60570;50.848;6.776;2022-08-05T05:13:16;4.85;;;1.33;;
72547;SDS011;60570;50.848;6.776;2022-08-05T05:14:17;5.07;;;1.67;;
72547;SDS011;60570;50.848;6.776;2022-08-05T05:15:17;3.58;;;1.15;;
72547;SDS011;60570;50.848;6.776;2022-08-05T05:16:18;3.78;;;1.13;;
72547;SDS011;60570;50.848;6.776;2022-08-05T05:17:18;3.60;;;1.15;;
72547;SDS011;60570;50.848;6.776;2022-08-05T05:18:18;3.65;;;1.40;;
72547;SDS011;60570;50.848;6.776;2022-08-05T05:19:19;5.43;;;1.30;;
72547;SDS011;60570;50.848;6.776;2022-08-05T05:20:19;3.80;;;1.20;;
72547;SDS011;60570;50.848;6.776;2022-08-05T05:21:20;3.22;;;1.40;;
72547;SDS011;60570;50.848;6.776;2022-08-05T05:22:20;3.83;;;1.20;;
72547;SDS011;60570;50.848;6.776;2022-08-05T05:23:21;3.50;;;1.33;;
72547;SDS011;60570;50.848;6.776;2022-08-05T05:24:21;4.82;;;1.10;;
72547;SDS011;60570;50.848;6.776;2022-08-05T05:25:21;4.55;;;1.40;;
72547;SDS011;60570;50.848;6.776;2022-08-05T05:26:22;2.92;;;1.25;;
72547;SDS011;60570;50.848;6.776;2022-08-05T05:27:22;4.93;;;1.05;;
72547;SDS011;60570;50.848;6.776;2022-08-05T05:28:22;4.38;;;1.35;;
72547;SDS011;60570;50.848;6.776;2022-08-05T05:29:23;3.10;;;1.02;;
72547;SDS011;60570;50.848;6.776;2022-08-05T05:30:23;2.80;;;1.08;;
72547;SDS011;60570;50.848;6.776;2022-08-05T05:31:24;3.75;;;1.25;;
72547;SDS011;60570;50.848;6.776;2022-08-05T05:32:25;4.28;;;1.25;;
72547;SDS011;60570;50.848;6.776;2022-08-05T05:33:25;7.13;;;1.48;;
72547;SDS011;60570;50.848;6.776;2022-08-05T05:34:26;4.80;;;1.27;;
72547;SDS011;60570;50.848;6.776;2022-08-05T05:35:27;3.78;;;1.23;;
72547;SDS011;60570;50.848;6.776;2022-08-05T05:36:28;3.72;;;1.27;;
72547;SDS011;60570;50.848;6.776;2022-08-05T05:37:29;4.82;;;1.55;;
72547;SDS011;60570;50.848;6.776;2022-08-05T05:38:30;4.20;;;1.50;;
72547;SDS011;60570;50.848;6.776;2022-08-05T05:39:30;5.03;;;1.50;;
72547;SDS011;60570;50.848;6.776;2022-08-05T05:40:31;3.63;;;1.40;;
72547;SDS011;60570;50.848;6.776;2022-08-05T05:41:32;4.35;;;1.30;;
72547;SDS011;60570;50.848;6.776;2022-08-05T05:42:32;4.28;;;1.30;;
72547;SDS011;60570;50.848;6.776;2022-08-05T05:43:33;3.63;;;1.30;;
72547;SDS011;60570;50.848;6.776;2022-08-05T05:44:33;3.80;;;1.30;;
72547;SDS011;60570;50.848;6.776;2022-08-05T05:45:34;3.15;;;1.40;;
72547;SDS011;60570;50.848;6.776;2022-08-05T05:46:34;3.63;;;1.38;;
72547;SDS011;60570;50.848;6.776;2022-08-05T05:47:35;4.22;;;1.20;;
72547;SDS011;60570;50.848;6.776;2022-08-05T05:48:35;3.97;;;1.30;;
72547;SDS011;60570;50.848;6.776;2022-08-05T05:49:36;3.92;;;1.35;;
72547;SDS011;60570;50.848;6.776;2022-08-05T05:50:36;3.30;;;1.50;;
72547;SDS011;60570;50.848;6.776;2022-08-05T05:51:39;6.15;;;1.48;;
72547;SDS011;60570;50.848;6.776;2022-08-05T05:52:40;3.05;;;1.40;;
72547;SDS011;60570;50.848;6.776;2022-08-05T05:53:41;3.88;;;1.58;;
72547;SDS011;60570;50.848;6.776;2022-08-05T05:54:43;4.70;;;1.80;;
72547;SDS011;60570;50.848;6.776;2022-08-05T05:55:44;4.03;;;1.30;;
72547;SDS011;60570;50.848;6.776;2022-08-05T05:56:45;4.05;;;1.98;;
72547;SDS011;60570;50.848;6.776;2022-08-05T05:57:46;3.83;;;1.45;;
72547;SDS011;60570;50.848;6.776;2022-08-05T05:58:46;3.80;;;1.45;;
72547;SDS011;60570;50.848;6.776;2022-08-05T05:59:47;2.90;;;1.23;;
72547;SDS011;60570;50.848;6.776;2022-08-05T06:00:47;3.28;;;1.63;;
72547;SDS011;60570;50.848;6.776;2022-08-05T06:01:47;6.07;;;1.80;;
72547;SDS011;60570;50.848;6.776;2022-08-05T06:02:48;4.15;;;1.83;;
72547;SDS011;60570;50.848;6.776;2022-08-05T06:03:48;5.63;;;1.55;;
72547;SDS011;60570;50.848;6.776;2022-08-05T06:04:49;5.28;;;1.77;;
72547;SDS011;60570;50.848;6.776;2022-08-05T06:05:49;5.68;;;1.70;;
72547;SDS011;60570;50.848;6.776;2022-08-05T06:06:50;4.05;;;1.60;;
72547;SDS011;60570;50.848;6.776;2022-08-05T06:07:50;3.65;;;1.52;;
72547;SDS011;60570;50.848;6.776;2022-08-05T06:08:50;8.95;;;2.17;;
72547;SDS011;60570;50.848;6.776;2022-08-05T06:09:51;4.93;;;1.80;;
72547;SDS011;60570;50.848;6.776;2022-08-05T06:10:51;4.55;;;2.10;;
72547;SDS011;60570;50.848;6.776;2022-08-05T06:11:52;5.78;;;2.40;;
72547;SDS011;60570;50.848;6.776;2022-08-05T06:12:54;5.97;;;2.17;;
72547;SDS011;60570;50.848;6.776;2022-08-05T06:13:54;4.78;;;2.10;;
72547;SDS011;60570;50.848;6.776;2022-08-05T06:14:55;6.28;;;2.67;;
72547;SDS011;60570;50.848;6.776;2022-08-05T06:15:55;5.00;;;2.58;;
72547;SDS011;60570;50.848;6.776;2022-08-05T06:16:56;6.18;;;2.65;;
72547;SDS011;60570;50.848;6.776;2022-08-05T06:17:57;5.97;;;2.75;;
72547;SDS011;60570;50.848;6.776;2022-08-05T06:18:58;5.78;;;2.97;;
72547;SDS011;60570;50.848;6.776;2022-08-05T06:19:59;5.38;;;2.38;;
72547;SDS011;60570;50.848;6.776;2022-08-05T06:20:59;5.35;;;2.63;;
72547;SDS011;60570;50.848;6.776;2022-08-05T06:21:59;3.97;;;2.40;;
72547;SDS011;60570;50.848;6.776;2022-08-05T06:23:00;6.13;;;3.42;;
72547;SDS011;60570;50.848;6.776;2022-08-05T06:24:00;6.10;;;3.13;;
72547;SDS011;60570;50.848;6.776;2022-08-05T06:25:02;5.70;;;2.72;;
72547;SDS011;60570;50.848;6.776;2022-08-05T06:26:03;6.18;;;3.33;;
72547;SDS011;60570;50.848;6.776;2022-08-05T06:27:04;6.07;;;3.05;;
72547;SDS011;60570;50.848;6.776;2022-08-05T06:28:04;6.05;;;3.25;;
72547;SDS011;60570;50.848;6.776;2022-08-05T06:29:05;6.90;;;3.13;;